Terminal Aerodrome Forecast
Issued by NWS Greer, SC

Home | Current Version | Previous Version | Text Only | Print | Product List | Glossary On
Versions: 1 2 3 4 5 6 7 8 9 10 11 12 13 14 15 16 17 18 19
000
FTUS42 KGSP 191135
TAFAVL
TAF
KAVL 191135Z 1912/2012 VRB03KT P6SM SCT250
     FM191800 28004KT P6SM SCT060
     FM200500 00000KT P6SM SCT120
     FM200900 00000KT 5SM BR SCT120=

USA.gov is the U.S. government's official web portal to all federal, state and local government web resources and services.